Time;durP1;ratioP1;P1;durP2;ratioP2;P2;SDS_P1;SDS_P2;PMS_P1;PMS_P2;Temp;Humidity;BMP_temperature;BMP_pressure;BME280_temperature;BME280_humidity;BME280_pressure;Samples;Min_cycle;Max_cycle;Signal;HPM_P1;HPM_P2
2021/12/21 00:01:20;;;;;;;28.17;12.27;;;;;;;;;;5072994;28;20059;-69
2021/12/21 00:03:46;;;;;;;43.97;13.85;;;;;;;;;;5072832;28;20025;-69
2021/12/21 00:06:12;;;;;;;31.45;11.15;;;;;;;;;;5072592;28;20042;-69
2021/12/21 00:08:38;;;;;;;39.17;12.70;;;;;;;;;;5072861;28;20035;-68
2021/12/21 00:11:04;;;;;;;35.80;12.88;;;;;;;;;;5073167;28;20068;-69
2021/12/21 00:16:15;;;;;;;32.25;12.63;;;;;;;;;;5072975;28;20025;-70
2021/12/21 00:21:45;;;;;;;38.88;14.00;;;;;;;;;;5073056;28;20108;-69
2021/12/21 00:24:20;;;;;;;40.20;13.30;;;;;;;;;;5072028;28;20016;-68
2021/12/21 00:26:46;;;;;;;51.83;12.80;;;;;;;;;;5073170;28;20032;-69
2021/12/21 00:29:12;;;;;;;33.05;12.30;;;;;;;;;;5073201;28;20029;-69
2021/12/21 00:31:38;;;;;;;38.67;14.18;;;;;;;;;;5054083;28;20028;-68
2021/12/21 00:34:06;;;;;;;28.73;12.35;;;;;;;;;;5072330;28;20033;-68
2021/12/21 00:36:33;;;;;;;47.90;14.77;;;;;;;;;;5072063;28;20024;-69
2021/12/21 00:39:04;;;;;;;27.73;11.25;;;;;;;;;;5072665;28;20111;-69
2021/12/21 00:41:31;;;;;;;26.13;11.82;;;;;;;;;;5072309;28;20084;-69
2021/12/21 00:43:57;;;;;;;28.05;13.43;;;;;;;;;;5070951;28;20032;-69
2021/12/21 00:46:23;;;;;;;25.38;11.13;;;;;;;;;;5054216;28;20473;-69
2021/12/21 00:48:55;;;;;;;28.88;12.32;;;;;;;;;;5071600;28;20033;-70
2021/12/21 00:51:23;;;;;;;25.50;12.85;;;;;;;;;;5054243;28;20052;-69
2021/12/21 00:53:48;;;;;;;23.83;11.88;;;;;;;;;;5053965;28;20032;-71
2021/12/21 00:56:15;;;;;;;37.88;12.77;;;;;;;;;;5036234;28;20436;-69
2021/12/21 00:58:41;;;;;;;49.88;14.02;;;;;;;;;;5051795;28;20024;-68
2021/12/21 01:01:07;;;;;;;32.58;13.27;;;;;;;;;;5033474;28;20047;-69
2021/12/21 01:03:39;;;;;;;22.35;11.15;;;;;;;;;;5032611;28;20485;-69
2021/12/21 01:06:23;;;;;;;25.90;11.55;;;;;;;;;;5050732;28;20444;-69
2021/12/21 01:11:35;;;;;;;29.63;14.30;;;;;;;;;;5072547;28;20488;-68
2021/12/21 01:16:40;;;;;;;25.90;12.65;;;;;;;;;;5072557;28;20036;-69
2021/12/21 01:19:12;;;;;;;31.20;11.98;;;;;;;;;;5053263;28;20035;-69
2021/12/21 01:22:06;;;;;;;28.42;11.73;;;;;;;;;;5053635;28;20029;-69
2021/12/21 01:24:52;;;;;;;23.30;10.70;;;;;;;;;;5072254;28;20024;-70
2021/12/21 01:32:56;;;;;;;36.47;12.23;;;;;;;;;;5054112;28;20027;-70
2021/12/21 01:35:32;;;;;;;29.02;11.93;;;;;;;;;;5071628;28;20035;-69
2021/12/21 01:38:08;;;;;;;26.58;12.48;;;;;;;;;;5053864;28;20044;-69
2021/12/21 01:50:59;;;;;;;39.50;13.10;;;;;;;;;;5072344;28;20564;-69
2021/12/21 01:53:25;;;;;;;33.08;12.95;;;;;;;;;;5053344;28;20119;-69
2021/12/21 01:55:51;;;;;;;25.88;11.35;;;;;;;;;;5075389;28;20032;-70
2021/12/21 01:58:17;;;;;;;46.60;12.95;;;;;;;;;;5076103;28;20028;-69
2021/12/21 02:00:44;;;;;;;23.77;11.35;;;;;;;;;;5057884;28;20442;-69
2021/12/21 02:03:10;;;;;;;29.30;10.90;;;;;;;;;;5075066;28;20020;-69
2021/12/21 02:05:36;;;;;;;22.88;11.02;;;;;;;;;;5057597;28;20024;-69
2021/12/21 02:08:03;;;;;;;28.73;12.02;;;;;;;;;;5075725;28;20032;-69
2021/12/21 02:10:29;;;;;;;25.85;11.65;;;;;;;;;;5057897;28;20453;-70
2021/12/21 02:12:55;;;;;;;38.50;12.02;;;;;;;;;;5056978;28;20052;-70
2021/12/21 02:15:24;;;;;;;37.00;13.70;;;;;;;;;;5057579;28;20063;-70
2021/12/21 02:23:09;;;;;;;28.65;11.88;;;;;;;;;;5074662;28;20032;-69
2021/12/21 02:28:32;;;;;;;31.17;11.73;;;;;;;;;;5075197;28;20025;-70
2021/12/21 02:30:58;;;;;;;22.67;11.07;;;;;;;;;;5075170;28;20075;-69
2021/12/21 02:33:26;;;;;;;31.55;12.70;;;;;;;;;;5056538;28;20055;-69
2021/12/21 02:35:52;;;;;;;28.83;11.93;;;;;;;;;;5075473;28;20021;-70
2021/12/21 02:38:19;;;;;;;24.77;11.75;;;;;;;;;;5057223;28;20033;-70
2021/12/21 02:40:45;;;;;;;28.75;11.10;;;;;;;;;;5057280;28;20401;-70
2021/12/21 02:43:15;;;;;;;26.30;11.52;;;;;;;;;;5056433;28;20024;-71
2021/12/21 02:45:41;;;;;;;35.22;11.77;;;;;;;;;;5057064;28;20081;-71
2021/12/21 02:48:08;;;;;;;41.72;12.98;;;;;;;;;;5086184;23;20071;-71
2021/12/21 02:50:36;;;;;;;24.90;12.00;;;;;;;;;;5056964;28;20029;-70
2021/12/21 02:53:02;;;;;;;29.58;11.98;;;;;;;;;;5056187;28;20056;-69
2021/12/21 02:55:28;;;;;;;27.75;11.50;;;;;;;;;;5056968;28;20063;-70
2021/12/21 02:57:57;;;;;;;50.55;14.18;;;;;;;;;;5056787;28;20025;-70
2021/12/21 03:00:23;;;;;;;27.58;13.25;;;;;;;;;;5074622;28;20017;-70
2021/12/21 03:02:49;;;;;;;29.80;12.77;;;;;;;;;;5056039;28;20032;-70
2021/12/21 03:05:15;;;;;;;40.70;13.32;;;;;;;;;;5074414;28;20039;-69
2021/12/21 03:10:25;;;;;;;41.63;13.35;;;;;;;;;;5074636;28;20044;-70
2021/12/21 03:15:18;;;;;;;34.33;12.27;;;;;;;;;;5074409;28;20025;-71
2021/12/21 03:17:44;;;;;;;28.58;12.40;;;;;;;;;;5055933;28;20073;-69
2021/12/21 03:20:10;;;;;;;30.30;13.15;;;;;;;;;;5056582;28;20028;-70
2021/12/21 03:22:36;;;;;;;90.95;43.42;;;;;;;;;;5073431;28;20099;-68
2021/12/21 03:25:03;;;;;;;59.78;31.20;;;;;;;;;;5056259;28;20102;-69
2021/12/21 03:27:29;;;;;;;35.67;16.40;;;;;;;;;;5074068;28;20020;-69
2021/12/21 03:29:55;;;;;;;32.85;13.40;;;;;;;;;;5073962;28;20021;-69
2021/12/21 03:32:21;;;;;;;34.78;12.10;;;;;;;;;;5055437;28;20031;-68
2021/12/21 03:34:47;;;;;;;28.95;12.57;;;;;;;;;;5074137;28;20028;-68
2021/12/21 03:37:14;;;;;;;32.38;15.27;;;;;;;;;;5073945;28;20029;-69
2021/12/21 03:39:45;;;;;;;33.10;14.18;;;;;;;;;;5073825;28;20492;-69
2021/12/21 03:42:11;;;;;;;56.72;17.77;;;;;;;;;;5073128;28;20032;-69
2021/12/21 03:44:38;;;;;;;67.10;18.33;;;;;;;;;;5073905;28;20448;-68
2021/12/21 03:47:04;;;;;;;31.25;13.35;;;;;;;;;;5055603;28;20020;-68
2021/12/21 03:52:00;;;;;;;36.15;13.63;;;;;;;;;;5073133;28;20025;-72
2021/12/21 03:54:26;;;;;;;44.28;15.27;;;;;;;;;;5055763;28;20075;-69
2021/12/21 03:56:52;;;;;;;45.75;13.32;;;;;;;;;;5055745;28;20173;-68
2021/12/21 03:59:19;;;;;;;38.30;15.10;;;;;;;;;;5055716;28;20028;-68
2021/12/21 04:01:46;;;;;;;29.85;12.70;;;;;;;;;;5054595;28;20021;-67
2021/12/21 04:04:12;;;;;;;31.00;13.18;;;;;;;;;;5055637;28;20017;-69
2021/12/21 04:06:38;;;;;;;28.95;13.60;;;;;;;;;;5073811;28;20058;-68
2021/12/21 04:09:05;;;;;;;44.20;15.38;;;;;;;;;;5055463;28;20025;-68
2021/12/21 04:11:31;;;;;;;37.97;14.35;;;;;;;;;;5055230;28;20097;-68
2021/12/21 04:13:58;;;;;;;28.77;13.48;;;;;;;;;;5072557;28;20020;-68
2021/12/21 04:16:24;;;;;;;27.98;13.10;;;;;;;;;;5055321;28;20047;-69
2021/12/21 04:18:50;;;;;;;52.17;14.75;;;;;;;;;;5072258;28;20032;-70
2021/12/21 04:21:16;;;;;;;45.60;14.43;;;;;;;;;;5055201;28;20478;-69
2021/12/21 04:23:43;;;;;;;27.77;13.02;;;;;;;;;;5054504;28;20488;-70
2021/12/21 04:26:10;;;;;;;32.97;14.48;;;;;;;;;;5054990;28;20115;-68
2021/12/21 04:28:36;;;;;;;38.25;15.00;;;;;;;;;;5072848;28;20028;-69
2021/12/21 04:31:05;;;;;;;35.58;14.30;;;;;;;;;;5072707;28;20020;-69
2021/12/21 04:33:31;;;;;;;41.55;13.15;;;;;;;;;;5072016;28;20048;-69
2021/12/21 04:35:57;;;;;;;28.73;13.32;;;;;;;;;;5072948;28;20473;-68
2021/12/21 04:38:28;;;;;;;27.67;14.23;;;;;;;;;;5072544;28;20024;-67
2021/12/21 04:41:00;;;;;;;27.45;14.75;;;;;;;;;;5072507;28;20154;-68
2021/12/21 04:43:28;;;;;;;39.42;14.75;;;;;;;;;;5054299;28;20133;-67
2021/12/21 04:45:54;;;;;;;29.98;13.63;;;;;;;;;;5054638;28;20057;-68
2021/12/21 04:48:20;;;;;;;35.30;14.45;;;;;;;;;;5072309;28;20097;-70
2021/12/21 04:50:46;;;;;;;36.50;14.55;;;;;;;;;;5054617;28;20023;-68
2021/12/21 04:53:12;;;;;;;35.00;14.82;;;;;;;;;;5071833;28;20024;-68
2021/12/21 04:55:38;;;;;;;25.92;13.38;;;;;;;;;;5072452;28;20067;-69
2021/12/21 04:58:04;;;;;;;30.00;13.93;;;;;;;;;;5054292;28;20036;-69
2021/12/21 05:00:30;;;;;;;29.65;13.27;;;;;;;;;;5072296;28;20107;-70
2021/12/21 05:02:57;;;;;;;26.38;13.50;;;;;;;;;;5071833;28;20028;-73
2021/12/21 05:05:23;;;;;;;41.45;15.80;;;;;;;;;;5072310;28;20020;-69
2021/12/21 05:07:54;;;;;;;34.58;14.27;;;;;;;;;;5054142;28;20472;-70
2021/12/21 05:10:20;;;;;;;29.70;14.73;;;;;;;;;;5072415;28;20028;-69
2021/12/21 05:12:47;;;;;;;25.27;13.98;;;;;;;;;;5071656;28;20465;-69
2021/12/21 05:15:13;;;;;;;26.20;14.13;;;;;;;;;;5072098;28;20024;-69
2021/12/21 05:17:39;;;;;;;57.67;15.57;;;;;;;;;;5054236;28;20050;-69
2021/12/21 05:20:05;;;;;;;59.88;17.95;;;;;;;;;;5054027;28;20608;-69
2021/12/21 05:22:31;;;;;;;42.50;15.15;;;;;;;;;;5053122;28;20040;-69
2021/12/21 05:24:57;;;;;;;62.92;18.02;;;;;;;;;;5072380;28;20396;-69
2021/12/21 05:27:24;;;;;;;49.63;17.75;;;;;;;;;;5072215;28;20040;-67
2021/12/21 05:29:50;;;;;;;51.45;16.25;;;;;;;;;;5057769;28;20017;-67
2021/12/21 05:32:16;;;;;;;78.53;18.95;;;;;;;;;;5077989;28;20025;-69
2021/12/21 05:34:42;;;;;;;67.30;17.30;;;;;;;;;;5078969;28;20024;-69
2021/12/21 05:37:08;;;;;;;29.38;15.50;;;;;;;;;;5078727;28;20108;-70
2021/12/21 05:39:44;;;;;;;32.53;17.05;;;;;;;;;;5078612;28;20028;-69
2021/12/21 05:42:10;;;;;;;65.22;34.10;;;;;;;;;;5078148;28;20404;-70
2021/12/21 05:44:36;;;;;;;62.03;32.47;;;;;;;;;;5078590;28;20021;-70
2021/12/21 05:47:02;;;;;;;44.00;18.42;;;;;;;;;;5060535;28;20020;-69
2021/12/21 05:49:28;;;;;;;30.17;14.57;;;;;;;;;;5060504;28;20047;-68
2021/12/21 05:51:54;;;;;;;37.92;17.02;;;;;;;;;;5059831;28;20028;-68
2021/12/21 05:54:21;;;;;;;31.88;14.63;;;;;;;;;;5060433;28;20028;-69
2021/12/21 05:56:48;;;;;;;37.25;15.90;;;;;;;;;;5078423;28;20113;-67
2021/12/21 05:59:14;;;;;;;60.13;17.13;;;;;;;;;;5078275;28;20029;-69
2021/12/21 06:01:40;;;;;;;61.00;18.10;;;;;;;;;;5077687;28;20060;-68
2021/12/21 06:04:06;;;;;;;58.45;17.40;;;;;;;;;;5078213;28;20078;-69
2021/12/21 06:06:32;;;;;;;38.67;17.38;;;;;;;;;;5078482;28;20035;-69
2021/12/21 06:09:03;;;;;;;53.65;19.02;;;;;;;;;;5060650;28;20035;-69
2021/12/21 06:11:31;;;;;;;79.50;21.50;;;;;;;;;;5060049;28;20031;-68
2021/12/21 06:26:56;;;;;;;61.85;20.05;;;;;;;;;;5077988;28;20092;-69
2021/12/21 06:29:22;;;;;;;40.40;16.30;;;;;;;;;;5059994;28;20111;-70
2021/12/21 06:31:49;;;;;;;55.33;18.88;;;;;;;;;;5061978;28;20031;-70
2021/12/21 06:34:15;;;;;;;42.60;17.05;;;;;;;;;;5057712;28;20100;-70
2021/12/21 06:36:41;;;;;;;34.13;17.80;;;;;;;;;;5058213;28;20109;-69
2021/12/21 06:39:08;;;;;;;35.03;17.40;;;;;;;;;;5062972;28;20477;-69
2021/12/21 06:41:35;;;;;;;40.70;17.85;;;;;;;;;;5074406;28;20025;-67
2021/12/21 06:44:03;;;;;;;40.15;18.20;;;;;;;;;;5056680;28;20037;-69
2021/12/21 06:51:50;;;;;;;39.17;17.38;;;;;;;;;;5073857;28;20078;-69
2021/12/21 06:54:16;;;;;;;33.50;16.52;;;;;;;;;;5056238;28;20051;-68
2021/12/21 06:56:42;;;;;;;35.67;17.27;;;;;;;;;;5046906;28;20029;-69
2021/12/21 06:59:09;;;;;;;37.35;18.02;;;;;;;;;;5054122;28;20029;-69
2021/12/21 07:01:37;;;;;;;55.78;21.27;;;;;;;;;;5035476;28;20029;-66
2021/12/21 07:04:03;;;;;;;;;;;;;;;;;;5054782;28;20044;-68
2021/12/21 07:06:29;;;;;;;40.97;20.52;;;;;;;;;;5054155;28;19909;-69
2021/12/21 07:19:23;;;;;;;42.85;17.48;;;;;;;;;;5073153;28;20560;-67
2021/12/21 07:21:49;;;;;;;49.08;17.90;;;;;;;;;;5072076;28;20111;-67
2021/12/21 07:24:15;;;;;;;34.55;16.77;;;;;;;;;;5054435;28;20032;-69
2021/12/21 07:26:41;;;;;;;36.20;16.35;;;;;;;;;;5054407;28;20346;-68
2021/12/21 07:29:07;;;;;;;28.77;16.02;;;;;;;;;;5072588;28;20102;-68
2021/12/21 07:31:33;;;;;;;35.17;17.00;;;;;;;;;;5054447;28;20404;-68
2021/12/21 07:33:59;;;;;;;30.92;15.95;;;;;;;;;;5054512;28;20024;-69
2021/12/21 07:36:32;;;;;;;30.10;16.63;;;;;;;;;;5054779;28;20036;-68
2021/12/21 07:38:59;;;;;;;28.52;14.90;;;;;;;;;;5054450;28;20492;-68
2021/12/21 07:41:25;;;;;;;31.48;14.88;;;;;;;;;;5054379;28;20377;-68
2021/12/21 07:43:51;;;;;;;32.28;15.50;;;;;;;;;;5071804;28;20035;-66
2021/12/21 07:46:18;;;;;;;28.48;15.70;;;;;;;;;;5054511;28;20024;-68
2021/12/21 07:48:44;;;;;;;30.85;15.43;;;;;;;;;;5072487;28;20059;-68
2021/12/21 07:51:10;;;;;;;29.23;16.20;;;;;;;;;;5054298;28;20051;-68
2021/12/21 07:53:36;;;;;;;33.78;16.60;;;;;;;;;;5053970;28;20211;-68
2021/12/21 07:56:02;;;;;;;34.92;15.18;;;;;;;;;;5053940;28;20025;-69
2021/12/21 07:58:32;;;;;;;27.67;15.45;;;;;;;;;;5071815;28;20503;-68
2021/12/21 08:00:59;;;;;;;27.35;14.77;;;;;;;;;;5071956;28;20392;-68
2021/12/21 08:03:25;;;;;;;34.75;16.52;;;;;;;;;;5071865;28;20032;-70
2021/12/21 08:05:54;;;;;;;33.13;17.58;;;;;;;;;;5072283;28;20029;-69
2021/12/21 08:08:22;;;;;;;32.38;16.45;;;;;;;;;;5072324;28;20024;-70
2021/12/21 08:10:54;;;;;;;;;;;;;;;;;;5072708;28;20029;-69
2021/12/21 08:13:21;;;;;;;31.17;16.95;;;;;;;;;;5071686;28;19911;-70
2021/12/21 08:15:47;;;;;;;33.92;16.30;;;;;;;;;;5071830;28;20055;-70
2021/12/21 08:18:13;;;;;;;38.25;18.90;;;;;;;;;;5053990;28;20113;-70
2021/12/21 08:20:39;;;;;;;44.90;19.42;;;;;;;;;;5072054;28;20027;-69
2021/12/21 08:23:06;;;;;;;53.28;22.55;;;;;;;;;;5071796;28;20071;-70
2021/12/21 08:25:32;;;;;;;53.85;20.73;;;;;;;;;;5071954;28;20104;-68
2021/12/21 08:27:59;;;;;;;51.45;21.80;;;;;;;;;;5071636;28;20443;-69
2021/12/21 08:30:25;;;;;;;52.40;23.80;;;;;;;;;;5053904;28;20074;-70
2021/12/21 08:32:52;;;;;;;52.38;24.02;;;;;;;;;;5070674;28;20437;-69
2021/12/21 08:35:18;;;;;;;50.53;21.95;;;;;;;;;;5068365;28;20034;-69
2021/12/21 08:37:52;;;;;;;53.90;24.30;;;;;;;;;;5050230;28;20419;-69
2021/12/21 08:40:22;;;;;;;50.15;23.90;;;;;;;;;;5050282;28;20047;-69
2021/12/21 08:42:50;;;;;;;53.58;23.27;;;;;;;;;;5050758;28;20129;-70
2021/12/21 08:45:17;;;;;;;59.10;25.52;;;;;;;;;;5051526;28;20029;-68
2021/12/21 08:47:43;;;;;;;68.68;25.67;;;;;;;;;;5059707;28;20020;-69
2021/12/21 08:50:11;;;;;;;61.40;28.70;;;;;;;;;;5051765;28;20025;-70
2021/12/21 08:52:37;;;;;;;58.57;27.13;;;;;;;;;;5049321;28;20055;-69
2021/12/21 08:55:05;;;;;;;51.92;24.20;;;;;;;;;;5051790;28;20036;-71
2021/12/21 08:57:31;;;;;;;53.85;25.38;;;;;;;;;;5050207;28;20028;-67
2021/12/21 08:59:57;;;;;;;62.75;28.48;;;;;;;;;;5050654;28;20143;-69
2021/12/21 09:02:23;;;;;;;60.88;27.92;;;;;;;;;;5049071;28;20248;-68
2021/12/21 09:04:49;;;;;;;53.47;27.30;;;;;;;;;;5050654;28;20389;-68
2021/12/21 09:07:15;;;;;;;53.50;25.13;;;-1.30;99.90;;;;;;5049611;28;20021;-69
2021/12/21 09:09:40;;;;;;;47.17;24.77;;;-1.00;99.90;;;;;;5050598;28;20519;-68
2021/12/21 09:12:07;;;;;;;50.17;22.77;;;-1.00;99.90;;;;;;5048944;28;20112;-70
2021/12/21 09:14:33;;;;;;;49.95;23.83;;;-1.10;99.90;;;;;;5050961;28;20069;-71
2021/12/21 09:16:59;;;;;;;54.22;23.80;;;;;;;;;;5051295;28;20543;-70
2021/12/21 09:19:25;;;;;;;53.63;24.17;;;;;;;;;;5050811;28;20041;-70
2021/12/21 09:21:51;;;;;;;68.32;22.92;;;;;;;;;;5050719;28;20035;-68
2021/12/21 09:24:17;;;;;;;51.65;22.63;;;;;;;;;;5063100;28;20025;-68
2021/12/21 09:26:43;;;;;;;45.03;22.40;;;;;;;;;;5070999;28;20582;-69
2021/12/21 09:29:09;;;;;;;45.72;22.35;;;;;;;;;;5053225;28;20157;-70
2021/12/21 09:31:36;;;;;;;37.83;20.85;;;;;;;;;;5052450;28;20059;-69
2021/12/21 09:34:02;;;;;;;40.85;22.23;;;;;;;;;;5053176;28;20029;-70
2021/12/21 09:36:29;;;;;;;32.92;16.77;;;;;;;;;;5070849;28;20040;-69
2021/12/21 09:38:55;;;;;;;40.60;18.40;;;;;;;;;;5071180;28;20025;-69
2021/12/21 09:41:21;;;;;;;33.72;18.55;;;;;;;;;;5053164;28;20036;-70
2021/12/21 09:43:48;;;;;;;35.85;18.10;;;;;;;;;;5052415;28;20025;-70
2021/12/21 09:46:14;;;;;;;37.50;16.25;;;;;;;;;;5070634;28;20437;-69
2021/12/21 09:48:40;;;;;;;37.15;18.90;;;;;;;;;;5052525;28;20031;-69
2021/12/21 09:51:06;;;;;;;43.42;16.23;;;;;;;;;;5070638;28;20099;-69
2021/12/21 09:53:33;;;;;;;29.85;16.80;;;;;;;;;;5069898;28;20459;-69
2021/12/21 09:55:59;;;;;;;49.15;20.05;;;;;;;;;;5053449;28;20081;-67
2021/12/21 09:58:25;;;;;;;87.38;23.92;;;;;;;;;;5070485;28;20465;-69
2021/12/21 10:00:51;;;;;;;55.08;21.35;;;;;;;;;;5070569;28;20119;-68
2021/12/21 10:03:17;;;;;;;39.25;21.52;;;;;;;;;;5069789;28;20048;-68
2021/12/21 10:05:44;;;;;;;54.45;22.13;;;;;;;;;;5052099;28;20529;-69
2021/12/21 10:08:10;;;;;;;51.35;22.83;;;;;;;;;;5051971;28;20066;-68
2021/12/21 10:11:02;;;;;;;52.47;22.92;;;;;;;;;;5070326;28;20392;-67
2021/12/21 10:13:28;;;;;;;56.03;24.25;;;;;;;;;;5065083;28;20094;-67
2021/12/21 10:15:57;;;;;;;57.58;24.48;;;;;;;;;;5070656;28;20099;-68
2021/12/21 10:18:29;;;;;;;49.33;26.98;;;;;;;;;;5074014;28;20043;-69
2021/12/21 10:20:56;;;;;;;49.28;21.45;;;;;;;;;;5074051;28;20032;-68
2021/12/21 10:23:25;;;;;;;47.97;22.15;;;;;;;;;;5073582;28;20024;-68
2021/12/21 10:25:53;;;;;;;44.13;19.92;;;;;;;;;;5073916;28;20056;-68
2021/12/21 10:28:27;;;;;;;35.35;18.05;;;;;;;;;;5072538;28;20028;-67
2021/12/21 10:30:54;;;;;;;33.33;18.13;;;;;;;;;;5073901;28;20078;-68
2021/12/21 10:33:22;;;;;;;30.20;18.70;;;;;;;;;;5073410;28;20025;-70
2021/12/21 10:35:48;;;;;;;37.13;16.35;;;;;;;;;;5074908;28;20048;-69
2021/12/21 10:38:23;;;;;;;46.22;18.15;;;;;;;;;;5053004;28;20079;-69
2021/12/21 10:40:50;;;;;;;30.58;17.08;;;;;;;;;;5074934;28;20035;-70
2021/12/21 10:43:16;;;;;;;36.05;17.92;;;;;;;;;;5057911;28;20024;-70
2021/12/21 10:45:43;;;;;;;32.75;16.70;;;;;;;;;;5058594;28;20029;-69
2021/12/21 10:48:15;;;;;;;33.55;17.13;;;;;;;;;;5076595;28;20020;-70
2021/12/21 10:50:42;;;;;;;32.17;15.52;;;;;;;;;;5076145;28;20116;-70
2021/12/21 10:53:08;;;;;;;28.38;15.35;;;;;;;;;;5075763;28;20032;-70
2021/12/21 10:55:36;;;;;;;41.00;17.20;;;;;;;;;;5056960;28;20056;-70
2021/12/21 10:58:03;;;;;;;35.05;15.73;;;;;;;;;;5074543;28;20475;-71
2021/12/21 11:00:29;;;;;;;34.05;16.63;;;;;;;;;;5074786;28;20039;-70
2021/12/21 11:02:55;;;;;;;29.70;15.70;;;;;;;;;;5055996;28;20025;-71
2021/12/21 11:05:21;;;;;;;28.88;14.88;;;;;;;;;;5053678;28;20029;-70
2021/12/21 11:07:53;;;;;;;32.95;16.65;;;;;;;;;;5063170;28;20017;-69
2021/12/21 11:10:26;;;;;;;30.80;16.05;;;;;;;;;;5058287;28;20377;-70
2021/12/21 11:13:18;;;;;;;31.02;17.35;;;;;;;;;;5060978;28;20025;-69
2021/12/21 11:15:56;;;;;;;29.45;15.02;;;;;;;;;;5051485;28;20089;-70
2021/12/21 11:18:23;;;;;;;28.67;14.85;;;;;;;;;;5059448;28;20070;-69
2021/12/21 11:20:51;;;;;;;35.35;14.93;;;;;;;;;;5054157;28;20029;-71
2021/12/21 11:23:18;;;;;;;31.17;15.32;;;;;;;;;;5058647;28;20101;-69
2021/12/21 11:25:48;;;;;;;28.58;15.05;;;;;;;;;;5058675;28;20071;-69
2021/12/21 11:28:15;;;;;;;28.50;15.77;;;;;;;;;;5053219;28;20453;-70
2021/12/21 11:30:42;;;;;;;38.15;15.55;;;;;;;;;;5056633;28;20515;-70
2021/12/21 11:33:10;;;;;;;29.13;15.90;;;;;;;;;;5055303;28;20025;-71
2021/12/21 11:38:09;;;;;;;33.70;14.63;;;;;;;;;;5070736;28;20029;-70
2021/12/21 11:40:37;;;;;;;33.58;15.85;;;;;;;;;;5055804;28;20032;-70
2021/12/21 11:43:41;;;;;;;38.73;15.47;;;;;;;;;;5055171;28;20244;-70
2021/12/21 11:46:10;;;;;;;29.65;14.65;;;;;;;;;;4992444;28;20327;-69
2021/12/21 11:49:14;;;;;;;38.92;17.35;;;;;;;;;;4975171;28;20133;-69
2021/12/21 11:51:40;;;;;;;30.27;16.10;;;;;;;;;;4957992;28;20476;-70
2021/12/21 11:54:15;;;;;;;28.52;15.13;;;;;;;;;;4956761;28;20114;-70
2021/12/21 11:56:41;;;;;;;29.10;14.82;;;;;;;;;;5009252;28;20032;-69
2021/12/21 11:59:07;;;;;;;28.95;14.68;;;;;;;;;;5073162;28;20032;-70
2021/12/21 12:01:33;;;;;;;30.42;16.70;;;;;;;;;;5074239;28;20064;-70
2021/12/21 12:04:01;;;;;;;31.92;16.30;;;;;;;;;;5073207;28;20063;-69
2021/12/21 12:06:30;;;;;;;28.92;15.57;;;;;;;;;;5072993;28;20433;-70
2021/12/21 12:09:01;;;;;;;34.03;16.73;;;;;;;;;;5054579;28;20113;-69
2021/12/21 12:11:39;;;;;;;36.20;17.67;;;;;;;;;;5072779;28;20024;-69
2021/12/21 12:14:05;;;;;;;34.20;18.67;;;;;;;;;;5073583;28;20398;-71
2021/12/21 12:16:45;;;;;;;31.85;17.15;;;;;;;;;;5055278;28;20550;-70
2021/12/21 12:19:16;;;;;;;32.47;18.92;;;;;;;;;;5054999;28;20046;-70
2021/12/21 12:21:56;;;;;;;30.40;16.73;;;;;;;;;;5071933;28;20025;-69
2021/12/21 12:24:22;;;;;;;31.13;17.08;;;;;;;;;;5046474;28;20043;-69
2021/12/21 12:26:59;;;;;;;34.28;18.15;;;;;;;;;;5065050;28;20473;-68
2021/12/21 12:29:25;;;;;;;31.13;17.00;;;;;;;;;;5052466;28;20447;-68
2021/12/21 12:32:04;;;;;;;35.92;17.42;;;;;;;;;;5059425;28;20017;-70
2021/12/21 12:34:32;;;;;;;44.45;17.15;;;;;;;;;;5059385;28;20016;-69
2021/12/21 12:36:58;;;;;;;32.40;17.35;;;;;;;;;;5050638;28;20592;-69
2021/12/21 12:39:29;;;;;;;36.25;18.38;;;;;;;;;;5049788;28;20029;-69
2021/12/21 12:42:01;;;;;;;31.45;17.95;;;;;;;;;;5049243;28;20078;-70
2021/12/21 12:44:27;;;;;;;30.92;17.33;;;;;;;;;;5050690;28;20033;-70
2021/12/21 12:46:54;;;;;;;31.30;15.45;;;;;;;;;;5052673;28;20059;-69
2021/12/21 12:49:25;;;;;;;28.52;15.45;;;;;;;;;;5069304;28;20016;-71
2021/12/21 12:51:51;;;;;;;29.27;17.33;;;;;;;;;;5068185;28;20082;-70
2021/12/21 12:54:18;;;;;;;38.75;19.23;;;;;;;;;;5049962;28;20020;-69
2021/12/21 12:56:45;;;;;;;32.38;18.27;;;;;;;;;;5058727;28;20029;-72
2021/12/21 12:59:11;;;;;;;33.28;17.58;;;;;;;;;;5060585;28;20812;-70
2021/12/21 13:01:42;;;;;;;35.72;18.20;;;;;;;;;;5048381;28;20028;-71
2021/12/21 13:04:10;;;;;;;34.13;18.55;;;;;;;;;;5049977;28;20055;-71
2021/12/21 13:06:37;;;;;;;36.72;19.10;;;;;;;;;;5048171;28;20054;-72
2021/12/21 13:09:05;;;;;;;33.47;18.05;;;;;;;;;;5053940;23;20084;-67
2021/12/21 13:11:32;;;;;;;45.05;18.85;;;;;;;;;;5036770;28;20021;-65
2021/12/21 13:14:00;;;;;;;48.20;20.40;;;;;;;;;;5026652;28;20028;-67
2021/12/21 13:16:28;;;;;;;43.83;18.97;;;;;;;;;;5028427;28;20132;-66
2021/12/21 13:18:55;;;;;;;37.53;19.77;;;;;;;;;;5037867;28;20025;-66
2021/12/21 13:21:29;;;;;;;36.22;19.77;;;;;;;;;;5039339;28;20021;-65
2021/12/21 13:24:11;;;;;;;36.78;18.50;;;;;;;;;;5028032;28;20031;-70
2021/12/21 13:26:48;;;;;;;37.55;18.13;;;;;;;;;;5030566;28;20033;-67
2021/12/21 13:29:15;;;;;;;36.45;18.42;;;;;;;;;;5029926;28;20493;-66
2021/12/21 13:31:43;;;;;;;34.65;17.92;;;;;;;;;;5028598;28;20048;-67
2021/12/21 13:34:09;;;;;;;33.72;15.50;;;;;;;;;;5047733;28;20043;-64
2021/12/21 13:36:46;;;;;;;29.83;16.40;;;;;;;;;;5030322;28;20021;-67
2021/12/21 13:39:23;;;;;;;35.78;16.20;;;;;;;;;;5048139;28;20028;-65
2021/12/21 13:41:53;;;;;;;31.45;15.82;;;;;;;;;;5046680;28;20080;-67
2021/12/21 13:44:27;;;;;;;32.75;15.95;;;;;;;;;;5029720;28;20033;-65
2021/12/21 13:46:54;;;;;;;38.30;16.92;;;;;;;;;;5030097;28;20171;-66
2021/12/21 13:49:20;;;;;;;32.13;15.18;;;;;;;;;;5047814;28;20040;-66
2021/12/21 13:51:57;;;;;;;34.75;15.20;;;;;;;;;;5032719;28;20029;-65
2021/12/21 13:54:24;;;;;;;35.42;16.63;;;;;;;;;;5033716;28;20032;-65
2021/12/21 13:56:51;;;;;;;33.92;16.45;;;;;;;;;;5033821;28;20781;-64
2021/12/21 13:59:18;;;;;;;34.65;16.60;;;;;;;;;;5033575;28;20112;-65
2021/12/21 14:01:47;;;;;;;32.67;17.17;;;;;;;;;;5032945;28;20064;-66
2021/12/21 14:04:15;;;;;;;38.50;18.80;;;;;;;;;;5051417;28;20032;-64
2021/12/21 14:06:41;;;;;;;36.90;18.13;;;;;;;;;;5033658;28;20029;-66
2021/12/21 14:09:12;;;;;;;39.05;17.50;;;;;;;;;;5051533;28;20538;-63
2021/12/21 14:11:39;;;;;;;39.65;17.35;;;;;;;;;;5032899;28;20022;-63
2021/12/21 14:14:15;;;;;;;35.88;17.15;;;;;;;;;;5033148;28;20021;-63
2021/12/21 14:16:43;;;;;;;42.80;18.20;;;;;;;;;;5047663;28;20104;-63
2021/12/21 14:19:13;;;;;;;32.15;16.90;;;;;;;;;;5046074;28;20025;-63
2021/12/21 14:21:40;;;;;;;55.75;20.75;;;;;;;;;;5035874;28;20078;-63
2021/12/21 14:24:07;;;;;;;52.50;20.00;;;;;;;;;;5054409;28;20032;-63
2021/12/21 14:26:36;;;;;;;39.25;18.65;;;;;;;;;;5054546;28;20048;-62
2021/12/21 14:29:09;;;;;;;37.20;15.15;;;;;;;;;;5054430;28;20080;-64
2021/12/21 14:31:54;;;;;;;37.35;15.30;;;;;;;;;;5053419;28;20017;-64
2021/12/21 14:34:21;;;;;;;36.40;16.08;;;;;;;;;;5053912;28;20024;-62
2021/12/21 14:36:47;;;;;;;31.42;16.05;;;;;;;;;;5054405;28;20039;-62
2021/12/21 14:39:15;;;;;;;33.42;16.67;;;;;;;;;;5035803;28;20032;-62
2021/12/21 14:41:43;;;;;;;35.60;15.40;;;;;;;;;;4684519;28;9999720;-63
2021/12/21 14:44:09;;;;;;;;;;;;;;;;;;5033581;28;20306;-64
2021/12/21 14:46:37;;;;;;;34.00;16.17;;;;;;;;;;5032567;28;19948;-62
2021/12/21 14:49:08;;;;;;;33.60;15.52;;;;;;;;;;5050988;28;20461;-62
2021/12/21 14:51:38;;;;;;;29.17;15.45;;;;;;;;;;5032624;28;20013;-66
2021/12/21 14:54:09;;;;;;;32.33;15.77;;;;;;;;;;5031968;28;20075;-65
2021/12/21 14:56:37;;;;;;;30.38;13.82;;;;;;;;;;5032465;28;20051;-63
2021/12/21 14:59:08;;;;;;;29.65;14.95;;;;;;;;;;5050658;28;20068;-65
2021/12/21 15:01:36;;;;;;;34.42;16.55;;;;;;;;;;5040025;28;20071;-64
2021/12/21 15:04:16;;;;;;;35.42;17.67;;;;;;;;;;5029727;28;20053;-64
2021/12/21 15:06:42;;;;;;;33.17;15.60;;;;;;;;;;5038705;28;20631;-65
2021/12/21 15:09:08;;;;;;;30.77;15.23;;;;;;;;;;5030293;28;20040;-67
2021/12/21 15:11:34;;;;;;;32.00;14.25;;;;;;;;;;5029556;28;20071;-65
2021/12/21 15:14:00;;;;;;;32.25;15.77;;;;;;;;;;5038407;28;20033;-66
2021/12/21 15:16:26;;;;;;;27.00;14.68;;;;;;;;;;5029654;28;20026;-63
2021/12/21 15:18:52;;;;;;;29.25;14.75;;;;;;;;;;5030059;28;20028;-65
2021/12/21 15:21:18;;;;;;;28.48;13.88;;;;;;;;;;5026728;28;20112;-67
2021/12/21 15:23:44;;;;;;;32.28;14.77;;;;;;;;;;5022835;28;20560;-67
2021/12/21 15:26:10;;;;;;;31.75;14.90;;;;;;;;;;5037902;28;20029;-64
2021/12/21 15:28:36;;;;;;;32.78;16.08;;;;;;;;;;5012298;28;20477;-66
2021/12/21 15:31:02;;;;;;;33.35;17.05;;;;;;;;;;5014718;28;20048;-66
2021/12/21 15:33:31;;;;;;;33.42;17.25;;;;;;;;;;5014232;28;20470;-66
2021/12/21 15:35:57;;;;;;;32.13;16.20;;;;;;;;;;5032826;28;20030;-66